Time;durP1;ratioP1;P1;durP2;ratioP2;P2;SDS_P1;SDS_P2;PMS_P1;PMS_P2;Temp;Humidity;BMP_temperature;BMP_pressure;BME280_temperature;BME280_humidity;BME280_pressure;Samples;Min_cycle;Max_cycle;Signal;HPM_P1;HPM_P2
2022/03/07 00:01:04;;;;;;;13.30;7.90;;;8.50;57.70;;;;;;12864699;23;20248;-80
2022/03/07 00:06:07;;;;;;;14.03;7.87;;;7.90;68.80;;;;;;12916412;23;20163;-80
2022/03/07 00:11:10;;;;;;;13.60;7.47;;;6.20;68.20;;;;;;12890062;23;20213;-80
2022/03/07 00:16:12;;;;;;;14.07;8.10;;;7.50;72.30;;;;;;12888678;23;20178;-80
2022/03/07 00:21:15;;;;;;;12.10;6.73;;;7.50;67.40;;;;;;12917381;23;20186;-80
2022/03/07 00:26:18;;;;;;;10.97;6.50;;;7.30;72.50;;;;;;12916405;23;20166;-80
2022/03/07 00:31:21;;;;;;;8.83;5.87;;;8.60;69.10;;;;;;12889116;23;20633;-80
2022/03/07 00:36:25;;;;;;;11.60;7.10;;;9.20;68.40;;;;;;12916635;23;20216;-80
2022/03/07 00:41:28;;;;;;;10.33;6.90;;;9.50;67.30;;;;;;12888886;23;20248;-80
2022/03/07 00:46:31;;;;;;;9.80;6.53;;;9.50;67.10;;;;;;12890421;23;20214;-80
2022/03/07 00:51:34;;;;;;;13.20;6.77;;;9.40;67.50;;;;;;12889653;23;20230;-80
2022/03/07 00:56:37;;;;;;;10.37;6.40;;;9.70;67.00;;;;;;12888559;23;20228;-80
2022/03/07 01:01:40;;;;;;;11.40;6.13;;;9.80;66.70;;;;;;12864685;23;20194;-80
2022/03/07 01:06:43;;;;;;;11.17;6.43;;;10.00;66.20;;;;;;12888695;23;20171;-80
2022/03/07 01:11:50;;;;;;;8.37;6.10;;;10.10;65.80;;;;;;12924487;23;20223;-80
2022/03/07 01:16:53;;;;;;;12.50;7.63;;;9.90;66.10;;;;;;12893194;23;20178;-80
2022/03/07 01:21:56;;;;;;;10.37;6.50;;;10.00;66.00;;;;;;12893791;23;20184;-80
2022/03/07 01:26:58;;;;;;;9.87;5.30;;;9.90;66.20;;;;;;12891888;23;20220;-80
2022/03/07 01:32:01;;;;;;;8.73;5.27;;;9.90;66.30;;;;;;12936783;23;20503;-80
2022/03/07 01:37:03;;;;;;;10.53;6.50;;;9.80;66.40;;;;;;12891771;23;20178;-80
2022/03/07 01:42:06;;;;;;;10.00;5.87;;;9.80;65.90;;;;;;12891749;23;20225;-80
2022/03/07 01:47:09;;;;;;;10.50;5.40;;;9.60;67.10;;;;;;12892324;23;20513;-81
2022/03/07 01:52:13;;;;;;;8.83;6.10;;;9.40;67.20;;;;;;12892228;23;20588;-80
2022/03/07 01:57:18;;;;;;;8.80;6.27;;;9.30;67.70;;;;;;12891218;23;20182;-81
2022/03/07 02:02:22;;;;;;;7.97;5.57;;;9.30;68.20;;;;;;12892100;23;20192;-80
2022/03/07 02:07:25;;;;;;;10.87;6.27;;;9.30;68.00;;;;;;12918752;23;20195;-80
2022/03/07 02:12:28;;;;;;;10.07;5.87;;;9.20;68.30;;;;;;12891008;23;20178;-80
2022/03/07 02:17:31;;;;;;;12.60;6.83;;;9.20;68.50;;;;;;12918460;23;20505;-80
2022/03/07 02:22:34;;;;;;;13.17;7.13;;;9.40;67.70;;;;;;12890498;23;20578;-80
2022/03/07 02:27:37;;;;;;;14.73;6.83;;;9.10;68.60;;;;;;12889345;23;20527;-80
2022/03/07 02:32:43;;;;;;;10.47;6.23;;;9.10;68.70;;;;;;12891302;23;20172;-81
2022/03/07 02:37:46;;;;;;;10.07;5.93;;;9.10;68.60;;;;;;12890178;23;20512;-80
2022/03/07 02:42:50;;;;;;;8.50;5.87;;;9.00;69.10;;;;;;12890079;23;20196;-81
2022/03/07 02:47:53;;;;;;;14.47;6.77;;;9.70;67.60;;;;;;12889384;23;20166;-80
2022/03/07 02:52:56;;;;;;;11.07;6.93;;;9.90;66.80;;;;;;12917528;23;20634;-80
2022/03/07 02:57:59;;;;;;;11.20;6.20;;;10.00;66.50;;;;;;12889170;23;20577;-80
2022/03/07 03:03:02;;;;;;;10.87;6.53;;;10.10;66.30;;;;;;12917157;23;20199;-80
2022/03/07 03:08:05;;;;;;;13.80;7.30;;;10.00;66.30;;;;;;12905437;23;20194;-80
2022/03/07 03:13:07;;;;;;;9.30;5.40;;;9.70;66.70;;;;;;12917190;23;20224;-80
2022/03/07 03:18:10;;;;;;;9.40;5.70;;;9.50;67.40;;;;;;12890272;23;20168;-80
2022/03/07 03:23:13;;;;;;;10.37;5.90;;;9.50;67.60;;;;;;12916668;23;20548;-80
2022/03/07 03:28:15;;;;;;;9.50;6.37;;;9.20;67.70;;;;;;12916242;23;20568;-80
2022/03/07 03:33:18;;;;;;;9.67;6.20;;;9.00;68.50;;;;;;12934815;23;20246;-80
2022/03/07 03:38:20;;;;;;;7.73;5.37;;;8.20;70.10;;;;;;12888754;23;20233;-80
2022/03/07 03:43:23;;;;;;;9.60;5.50;;;8.50;71.30;;;;;;12865833;23;20174;-80
2022/03/07 03:48:25;;;;;;;11.03;5.47;;;9.00;70.00;;;;;;12909095;23;20166;-80
2022/03/07 03:53:28;;;;;;;8.43;5.63;;;9.30;69.00;;;;;;12888425;23;20172;-80
2022/03/07 03:58:30;;;;;;;13.33;6.20;;;9.40;68.40;;;;;;12890393;23;20174;-80
2022/03/07 04:03:34;;;;;;;9.10;5.77;;;9.70;68.00;;;;;;12889636;23;20164;-80
2022/03/07 04:08:57;;;;;;;12.80;7.47;;;9.50;67.70;;;;;;12916131;23;20190;-80
2022/03/07 04:14:16;;;;;;;14.40;7.13;;;8.90;69.00;;;;;;12933406;23;20173;-80
2022/03/07 04:19:19;;;;;;;8.87;5.77;;;8.60;69.80;;;;;;12888474;23;20199;-80
2022/03/07 04:24:21;;;;;;;8.40;5.37;;;8.80;70.10;;;;;;12889198;23;20172;-80
2022/03/07 04:29:24;;;;;;;8.60;5.27;;;9.10;69.70;;;;;;12889056;23;20167;-81
2022/03/07 04:34:29;;;;;;;16.40;8.43;;;9.00;69.80;;;;;;12888286;23;20176;-80
2022/03/07 04:39:31;;;;;;;12.60;7.10;;;9.00;69.30;;;;;;12888617;23;20293;-80
2022/03/07 04:44:34;;;;;;;9.93;6.43;;;9.00;69.90;;;;;;12916310;23;20162;-81
2022/03/07 04:49:36;;;;;;;7.97;5.57;;;8.90;69.80;;;;;;12892995;23;20171;-80
2022/03/07 04:54:39;;;;;;;9.93;5.87;;;9.00;70.00;;;;;;12907891;23;20178;-80
2022/03/07 04:59:45;;;;;;;9.63;6.33;;;9.20;69.40;;;;;;12919706;23;20190;-80
2022/03/07 05:04:47;;;;;;;11.83;6.27;;;9.50;68.70;;;;;;12891787;23;20175;-80
2022/03/07 05:09:50;;;;;;;12.00;6.23;;;9.70;68.00;;;;;;12900138;23;20195;-80
2022/03/07 05:14:52;;;;;;;14.07;6.50;;;9.90;67.40;;;;;;12919631;23;20168;-79
2022/03/07 05:19:55;;;;;;;9.40;6.53;;;10.00;66.90;;;;;;12919375;23;20240;-79
2022/03/07 05:24:57;;;;;;;7.87;5.80;;;10.10;66.90;;;;;;12918740;23;20214;-80
2022/03/07 05:30:00;;;;;;;10.33;6.30;;;10.20;66.40;;;;;;12915493;23;20175;-80
2022/03/07 05:35:04;;;;;;;7.70;5.93;;;10.30;66.10;;;;;;12866272;23;20179;-80
2022/03/07 05:40:08;;;;;;;8.80;5.50;;;10.40;65.60;;;;;;12891273;23;20597;-80
2022/03/07 05:45:12;;;;;;;9.57;5.73;;;10.50;65.50;;;;;;12918933;23;20163;-80
2022/03/07 05:50:14;;;;;;;11.37;6.17;;;10.50;65.50;;;;;;12892283;23;20482;-81
2022/03/07 05:55:18;;;;;;;8.87;5.73;;;10.60;65.30;;;;;;12891922;23;20185;-81
2022/03/07 06:00:20;;;;;;;8.83;6.27;;;10.60;65.10;;;;;;12891147;23;20188;-81
2022/03/07 06:05:23;;;;;;;13.47;6.33;;;10.80;64.50;;;;;;12892121;23;20167;-81
2022/03/07 06:10:26;;;;;;;11.53;6.87;;;10.80;64.40;;;;;;12867072;23;20207;-80
2022/03/07 06:15:28;;;;;;;11.67;7.23;;;10.80;64.30;;;;;;12917891;23;20172;-82
2022/03/07 06:20:31;;;;;;;10.97;6.47;;;10.70;64.60;;;;;;12891533;23;20244;-81
2022/03/07 06:25:34;;;;;;;9.40;6.30;;;10.80;64.50;;;;;;12889925;23;20515;-83
2022/03/07 06:30:36;;;;;;;9.13;6.70;;;10.60;64.70;;;;;;12891877;23;20511;-82
2022/03/07 06:35:39;;;;;;;9.60;5.57;;;10.90;64.10;;;;;;12935888;23;20176;-81
2022/03/07 06:40:42;;;;;;;9.50;6.23;;;11.20;63.30;;;;;;12917898;23;20568;-81
2022/03/07 06:45:45;;;;;;;9.80;6.43;;;11.10;63.40;;;;;;12911862;23;20193;-81
2022/03/07 06:50:48;;;;;;;24.70;13.73;;;11.20;63.10;;;;;;12885923;23;20178;-80
2022/03/07 06:55:51;;;;;;;21.53;12.10;;;8.70;66.20;;;;;;12911400;23;20182;-80
2022/03/07 07:00:54;;;;;;;24.63;13.17;;;7.70;70.20;;;;;;12930804;23;20194;-80
2022/03/07 07:05:57;;;;;;;17.60;12.03;;;5.30;75.90;;;;;;12861635;23;20244;-80
2022/03/07 07:10:59;;;;;;;22.17;13.07;;;3.60;84.80;;;;;;12884926;23;20190;-79
2022/03/07 07:16:01;;;;;;;25.57;14.17;;;2.90;93.50;;;;;;12908247;23;20170;-79
2022/03/07 07:21:04;;;;;;;15.77;8.87;;;5.50;80.50;;;;;;12882607;23;20194;-79
2022/03/07 07:26:07;;;;;;;19.23;11.63;;;5.50;87.40;;;;;;12885558;23;20523;-80
2022/03/07 07:31:09;;;;;;;21.37;12.03;;;5.10;84.40;;;;;;12886133;23;20617;-80
2022/03/07 07:36:17;;;;;;;17.10;10.40;;;4.70;86.40;;;;;;12886277;23;20228;-81
2022/03/07 07:41:20;;;;;;;15.60;10.83;;;4.20;90.60;;;;;;12913002;23;20526;-80
2022/03/07 07:46:26;;;;;;;13.33;8.20;;;4.10;91.50;;;;;;12912292;23;20237;-81
2022/03/07 07:51:29;;;;;;;18.03;10.73;;;7.90;77.90;;;;;;12902513;23;20170;-81
2022/03/07 07:56:32;;;;;;;12.23;7.57;;;5.70;81.60;;;;;;12910401;23;20212;-78
2022/03/07 08:01:34;;;;;;;18.17;10.80;;;7.50;77.50;;;;;;12884391;23;20198;-79
2022/03/07 08:06:37;;;;;;;18.07;9.33;;;5.50;79.50;;;;;;12885848;23;20220;-79
2022/03/07 08:11:40;;;;;;;10.57;7.10;;;5.70;84.40;;;;;;12887444;23;20187;-79
2022/03/07 08:16:42;;;;;;;17.73;9.73;;;7.70;77.00;;;;;;12912221;23;20514;-79
2022/03/07 08:21:45;;;;;;;30.80;15.30;;;5.60;80.30;;;;;;12889214;23;20190;-79
2022/03/07 08:26:48;;;;;;;13.07;8.50;;;6.60;76.10;;;;;;12915382;23;20224;-79
2022/03/07 08:31:51;;;;;;;8.70;6.60;;;7.60;77.50;;;;;;12915787;23;20501;-79
2022/03/07 08:36:53;;;;;;;26.90;14.77;;;9.60;70.50;;;;;;12891033;23;20175;-79
2022/03/07 08:41:58;;;;;;;13.77;8.40;;;5.20;76.20;;;;;;12916354;23;20533;-80
2022/03/07 08:47:10;;;;;;;21.80;13.70;;;6.90;79.60;;;;;;12933131;23;20220;-80
2022/03/07 08:52:19;;;;;;;11.87;7.20;;;3.60;90.40;;;;;;12913566;23;20170;-78
2022/03/07 08:57:21;;;;;;;21.93;14.20;;;5.90;88.80;;;;;;12915814;23;20175;-79
2022/03/07 09:02:24;;;;;;;26.53;13.93;;;3.50;91.10;;;;;;12936328;23;20525;-80
2022/03/07 09:07:28;;;;;;;11.93;7.43;;;4.00;87.90;;;;;;12891258;23;20186;-78
2022/03/07 09:12:31;;;;;;;11.10;6.50;;;4.70;93.20;;;;;;12918596;23;20174;-80
2022/03/07 09:17:34;;;;;;;21.10;13.33;;;8.10;79.20;;;;;;12892894;23;20213;-78
2022/03/07 09:22:36;;;;;;;16.03;11.10;;;6.00;75.30;;;;;;12919143;23;20383;-80
2022/03/07 09:27:39;;;;;;;16.40;9.60;;;4.20;87.30;;;;;;12918933;23;20232;-79
2022/03/07 09:32:42;;;;;;;17.37;10.57;;;4.60;88.70;;;;;;12918884;23;20541;-78
2022/03/07 09:37:44;;;;;;;24.87;12.50;;;5.10;87.20;;;;;;12918504;23;20170;-79
2022/03/07 09:42:47;;;;;;;20.23;11.90;;;6.20;82.00;;;;;;12867560;23;20728;-78
2022/03/07 09:47:50;;;;;;;42.50;14.43;;;5.40;83.30;;;;;;12867398;23;20271;-80
2022/03/07 09:52:56;;;;;;;12.70;7.53;;;4.30;88.80;;;;;;12920304;23;20476;-80
2022/03/07 09:57:58;;;;;;;21.07;12.40;;;4.60;92.30;;;;;;12893049;23;20170;-81
2022/03/07 10:03:05;;;;;;;22.27;11.90;;;4.90;83.80;;;;;;12936801;23;20293;-80
2022/03/07 10:08:09;;;;;;;21.93;11.73;;;4.40;89.50;;;;;;12934198;23;20514;-80
2022/03/07 10:13:14;;;;;;;18.67;11.47;;;5.00;84.10;;;;;;12892891;23;20225;-80
2022/03/07 10:18:17;;;;;;;28.30;12.33;;;5.20;83.70;;;;;;12893356;23;20224;-80
2022/03/07 10:23:20;;;;;;;8.60;5.87;;;4.90;83.60;;;;;;12919682;23;20240;-78
2022/03/07 10:28:33;;;;;;;11.30;6.73;;;7.30;80.90;;;;;;12891443;23;20174;-79
2022/03/07 10:33:36;;;;;;;17.50;9.50;;;7.40;81.70;;;;;;12909157;23;20170;-79
2022/03/07 10:38:38;;;;;;;18.07;10.77;;;8.60;72.50;;;;;;12935643;23;20568;-79
2022/03/07 10:43:48;;;;;;;19.37;11.23;;;8.50;71.60;;;;;;12890022;23;20190;-79
2022/03/07 10:48:50;;;;;;;17.27;10.33;;;6.20;76.90;;;;;;12916863;23;20166;-79
2022/03/07 10:53:54;;;;;;;20.77;12.37;;;6.20;79.00;;;;;;12889670;23;20178;-79
2022/03/07 10:58:56;;;;;;;13.67;8.07;;;7.00;75.60;;;;;;12935012;23;20170;-79
2022/03/07 11:03:59;;;;;;;17.10;10.23;;;6.30;75.60;;;;;;12890556;23;20194;-79
2022/03/07 11:09:02;;;;;;;15.97;8.10;;;5.40;81.60;;;;;;12890094;23;20190;-79
2022/03/07 11:14:05;;;;;;;13.60;8.63;;;6.20;79.50;;;;;;12890748;23;20220;-79
2022/03/07 11:19:08;;;;;;;12.87;8.57;;;5.80;78.50;;;;;;12888796;23;20521;-79
2022/03/07 11:24:11;;;;;;;24.83;8.13;;;6.10;77.60;;;;;;12916434;23;20568;-79
2022/03/07 11:29:16;;;;;;;10.37;6.33;;;6.30;75.10;;;;;;12889395;23;20201;-79
2022/03/07 11:34:19;;;;;;;13.07;6.90;;;6.30;76.20;;;;;;12888767;23;20638;-78
2022/03/07 11:39:35;;;;;;;6.23;5.20;;;6.30;76.00;;;;;;12916232;23;20556;-79
2022/03/07 11:44:38;;;;;;;15.07;6.67;;;7.00;74.30;;;;;;12890292;23;20513;-78
2022/03/07 11:49:41;;;;;;;9.00;6.27;;;7.00;74.90;;;;;;12888486;23;20170;-79
2022/03/07 11:54:55;;;;;;;12.80;6.03;;;6.80;72.50;;;;;;12932978;23;20174;-79
2022/03/07 12:00:09;;;;;;;11.20;5.30;;;6.90;74.20;;;;;;12933423;23;20167;-78
2022/03/07 12:05:32;;;;;;;11.97;5.00;;;6.90;70.70;;;;;;12933318;23;20280;-78
2022/03/07 12:10:38;;;;;;;9.10;4.03;;;6.90;72.60;;;;;;12886778;23;20232;-78
2022/03/07 12:15:49;;;;;;;10.43;5.20;;;6.90;68.80;;;;;;12914983;23;20508;-78
2022/03/07 12:20:58;;;;;;;5.33;3.67;;;7.20;70.80;;;;;;12888916;23;20665;-80
2022/03/07 12:26:04;;;;;;;9.60;2.50;;;6.70;69.90;;;;;;12915403;23;20511;-79
2022/03/07 12:31:08;;;;;;;8.57;3.90;;;7.00;68.30;;;;;;12904870;23;20170;-79
2022/03/07 12:36:14;;;;;;;7.00;2.63;;;7.10;67.00;;;;;;12914640;23;20228;-79
2022/03/07 12:41:20;;;;;;;3.40;2.40;;;7.00;67.20;;;;;;12925869;23;20232;-81
2022/03/07 12:46:23;;;;;;;5.37;2.97;;;7.40;68.20;;;;;;12933230;23;20228;-80
2022/03/07 12:51:27;;;;;;;2.60;2.03;;;7.40;66.50;;;;;;12914599;23;20196;-80
2022/03/07 12:56:39;;;;;;;7.13;2.03;;;7.40;64.40;;;;;;12888834;23;20209;-80
2022/03/07 13:01:50;;;;;;;3.93;2.50;;;7.50;65.90;;;;;;12933748;23;20260;-79
2022/03/07 13:06:55;;;;;;;9.80;2.83;;;7.90;63.30;;;;;;12890592;23;20553;-80
2022/03/07 13:12:00;;;;;;;5.30;2.40;;;7.90;63.50;;;;;;12918046;23;20209;-80
2022/03/07 13:17:19;;;;;;;9.20;2.37;;;7.60;66.50;;;;;;12917909;23;20196;-80
2022/03/07 13:22:23;;;;;;;3.37;2.43;;;8.10;62.20;;;;;;12935651;23;20275;-81
2022/03/07 13:27:26;;;;;;;5.27;3.00;;;7.90;65.50;;;;;;12892202;23;20201;-80
2022/03/07 13:32:33;;;;;;;4.47;2.53;;;8.10;65.30;;;;;;12892072;23;20239;-80
2022/03/07 13:37:43;;;;;;;4.30;2.83;;;7.70;63.70;;;;;;12907816;23;20170;-79
2022/03/07 13:42:49;;;;;;;5.97;1.80;;;7.50;65.70;;;;;;12921194;23;20285;-79
2022/03/07 13:48:08;;;;;;;1.23;0.70;;;7.80;67.00;;;;;;12917634;23;20478;-80
2022/03/07 13:53:14;;;;;;;7.57;1.67;;;7.70;57.80;;;;;;12910144;23;20520;-79
2022/03/07 13:58:21;;;;;;;27.67;2.93;;;7.90;63.80;;;;;;12918666;23;20201;-88
2022/03/07 14:03:26;;;;;;;5.63;2.33;;;8.00;60.00;;;;;;12889521;23;20244;-81
2022/03/07 14:08:33;;;;;;;11.87;1.67;;;7.40;62.30;;;;;;12929381;23;20809;-81
2022/03/07 14:13:38;;;;;;;4.03;1.73;;;7.40;61.10;;;;;;12891892;23;20170;-79
2022/03/07 14:18:41;;;;;;;1.90;0.93;;;8.20;62.60;;;;;;12889737;23;20617;-79
2022/03/07 14:23:43;;;;;;;4.03;1.90;;;8.00;60.10;;;;;;12912253;23;20190;-79
2022/03/07 14:28:46;;;;;;;4.83;1.30;;;7.40;63.20;;;;;;12891521;23;20530;-79
2022/03/07 14:33:48;;;;;;;8.60;2.20;;;6.90;63.90;;;;;;12919073;23;20696;-81
2022/03/07 14:38:51;;;;;;;4.43;2.30;;;7.10;64.80;;;;;;12865066;23;20171;-79
2022/03/07 14:43:54;;;;;;;2.67;1.53;;;6.80;69.40;;;;;;12917951;23;20236;-79
2022/03/07 14:48:56;;;;;;;5.00;2.17;;;6.80;67.50;;;;;;12908426;23;20193;-79
2022/03/07 14:53:59;;;;;;;2.10;1.30;;;7.20;65.70;;;;;;12919043;23;20166;-80
2022/03/07 14:59:02;;;;;;;2.93;1.67;;;6.70;66.20;;;;;;12891683;23;20171;-79
2022/03/07 15:04:10;;;;;;;4.40;2.03;;;6.60;66.60;;;;;;12889739;23;20194;-80
2022/03/07 15:09:12;;;;;;;6.93;2.60;;;6.50;66.00;;;;;;12927239;23;20182;-79
2022/03/07 15:14:17;;;;;;;9.70;5.47;;;7.30;64.40;;;;;;12934630;23;20484;-79
2022/03/07 15:19:20;;;;;;;14.87;5.40;;;6.90;65.20;;;;;;12890397;23;20174;-79
2022/03/07 15:24:23;;;;;;;2.33;1.50;;;6.90;64.90;;;;;;12916578;23;20186;-79
2022/03/07 15:29:27;;;;;;;2.73;1.47;;;6.70;64.30;;;;;;12935284;23;20167;-79
2022/03/07 15:34:30;;;;;;;5.10;1.70;;;6.80;65.40;;;;;;12918088;23;20217;-83
2022/03/07 15:39:41;;;;;;;5.20;1.93;;;6.40;66.30;;;;;;12909251;23;20170;-82
2022/03/07 15:44:43;;;;;;;4.40;2.67;;;6.60;67.20;;;;;;12935814;23;20182;-83
2022/03/07 15:49:46;;;;;;;8.93;3.80;;;6.70;68.50;;;;;;12917335;23;20162;-83
2022/03/07 15:54:48;;;;;;;7.37;2.60;;;6.50;67.50;;;;;;12862857;23;20182;-83
2022/03/07 15:59:51;;;;;;;5.97;3.00;;;6.60;67.80;;;;;;12890625;23;20575;-79
2022/03/07 16:04:53;;;;;;;6.67;2.40;;;6.20;68.00;;;;;;12888469;23;20244;-78
2022/03/07 16:09:56;;;;;;;2.90;2.20;;;7.40;69.00;;;;;;12864462;23;20680;-78
2022/03/07 16:14:59;;;;;;;8.43;3.50;;;6.40;67.40;;;;;;12909190;23;20174;-78
2022/03/07 16:20:02;;;;;;;4.33;2.97;;;6.10;68.80;;;;;;12916918;23;20240;-80
2022/03/07 16:25:05;;;;;;;10.43;5.03;;;6.00;75.20;;;;;;12916025;23;20198;-79
2022/03/07 16:30:09;;;;;;;53.83;22.30;;;8.00;70.70;;;;;;12890535;23;20162;-79
2022/03/07 16:35:12;;;;;;;65.23;27.30;;;7.10;67.20;;;;;;12917646;23;20228;-78
2022/03/07 16:40:14;;;;;;;45.40;16.70;;;6.20;69.90;;;;;;12867764;23;20204;-78
2022/03/07 16:45:17;;;;;;;68.43;23.97;;;5.30;70.50;;;;;;12893623;23;20536;-78
2022/03/07 16:50:21;;;;;;;64.03;24.00;;;5.10;72.60;;;;;;12911672;23;20220;-78
2022/03/07 16:55:23;;;;;;;20.07;8.27;;;5.00;74.30;;;;;;12920535;23;20250;-79
2022/03/07 17:00:26;;;;;;;34.53;12.27;;;5.60;77.60;;;;;;12892589;23;20792;-81
2022/03/07 17:05:30;;;;;;;40.70;13.23;;;6.50;90.00;;;;;;12920149;23;20186;-81
2022/03/07 17:10:33;;;;;;;31.00;13.07;;;7.30;80.60;;;;;;12892195;23;20198;-80
2022/03/07 17:15:35;;;;;;;28.17;11.97;;;7.60;79.20;;;;;;12868317;23;20178;-81
2022/03/07 17:20:38;;;;;;;32.47;13.77;;;7.80;79.10;;;;;;12920207;23;20212;-81
2022/03/07 17:25:41;;;;;;;33.17;12.20;;;8.30;76.60;;;;;;12919855;23;20233;-81
2022/03/07 17:30:43;;;;;;;32.87;14.43;;;8.60;76.60;;;;;;12893212;23;20235;-80
2022/03/07 17:35:45;;;;;;;41.10;15.73;;;8.40;74.40;;;;;;12891490;23;20228;-80
2022/03/07 17:40:48;;;;;;;26.57;11.80;;;7.60;74.80;;;;;;12919769;23;20201;-80
2022/03/07 17:45:51;;;;;;;23.20;10.57;;;7.40;80.10;;;;;;12919365;23;20232;-81
2022/03/07 17:50:54;;;;;;;22.63;9.63;;;7.90;80.40;;;;;;12918636;23;20209;-81
2022/03/07 17:56:00;;;;;;;21.07;10.17;;;8.20;75.00;;;;;;12919403;23;20554;-80
2022/03/07 18:01:03;;;;;;;44.27;16.70;;;10.10;72.60;;;;;;12911320;23;20170;-79
2022/03/07 18:06:08;;;;;;;55.10;18.20;;;8.70;69.00;;;;;;12892479;23;20583;-79
2022/03/07 18:11:10;;;;;;;59.30;20.63;;;6.80;72.80;;;;;;12892144;23;20253;-79
2022/03/07 18:16:13;;;;;;;74.07;30.70;;;6.00;75.70;;;;;;12891354;23;20220;-79
2022/03/07 18:21:15;;;;;;;60.87;23.20;;;5.30;76.50;;;;;;12917903;23;20166;-80
2022/03/07 18:26:18;;;;;;;51.10;20.97;;;8.50;76.10;;;;;;12887357;23;20236;-83
2022/03/07 18:31:21;;;;;;;67.30;25.90;;;9.10;71.30;;;;;;12916967;23;20197;-79
2022/03/07 18:36:24;;;;;;;54.13;20.27;;;9.20;70.90;;;;;;12890190;23;20170;-79
2022/03/07 18:41:27;;;;;;;72.53;29.50;;;9.10;71.70;;;;;;12916623;23;20197;-81
2022/03/07 18:46:29;;;;;;;35.17;15.03;;;2.90;82.70;;;;;;12916989;23;20217;-80
2022/03/07 18:51:32;;;;;;;34.53;16.63;;;5.80;99.90;;;;;;12889059;23;20560;-80
2022/03/07 18:56:35;;;;;;;33.33;14.87;;;6.00;99.90;;;;;;12914120;23;20691;-84
2022/03/07 19:01:37;;;;;;;37.43;14.10;;;7.70;97.40;;;;;;12915853;23;20162;-81
2022/03/07 19:06:40;;;;;;;32.23;13.30;;;8.90;92.00;;;;;;12908121;23;20194;-80
2022/03/07 19:11:42;;;;;;;35.03;17.30;;;9.40;89.50;;;;;;12889594;23;20171;-81
2022/03/07 19:16:45;;;;;;;32.60;17.03;;;9.90;85.50;;;;;;12889178;23;20206;-81
2022/03/07 19:21:48;;;;;;;28.53;13.10;;;9.90;84.20;;;;;;12889223;23;20167;-81
2022/03/07 19:26:51;;;;;;;27.33;15.00;;;10.00;83.00;;;;;;12888880;23;20201;-81
2022/03/07 19:31:53;;;;;;;26.63;12.63;;;10.00;82.00;;;;;;12915835;23;20172;-81
2022/03/07 19:36:56;;;;;;;28.23;14.03;;;8.40;76.80;;;;;;12916378;23;20220;-81
2022/03/07 19:41:59;;;;;;;45.77;18.87;;;8.80;81.50;;;;;;12888087;23;20184;-81
2022/03/07 19:47:01;;;;;;;19.07;10.63;;;9.40;76.70;;;;;;12888637;23;20479;-81
2022/03/07 19:52:04;;;;;;;21.63;11.13;;;3.50;85.20;;;;;;12888286;23;20210;-81
2022/03/07 19:57:07;;;;;;;18.27;8.17;;;5.40;99.90;;;;;;12914649;23;20170;-81
2022/03/07 20:02:09;;;;;;;16.53;7.70;;;3.20;89.80;;;;;;12915507;23;20162;-80
2022/03/07 20:07:12;;;;;;;15.77;8.40;;;4.00;99.20;;;;;;12913496;23;20182;-81
2022/03/07 20:12:14;;;;;;;18.47;9.33;;;4.80;99.90;;;;;;12863971;23;20204;-80
2022/03/07 20:17:18;;;;;;;14.47;7.57;;;6.40;99.90;;;;;;12893504;23;20723;-81
2022/03/07 20:22:20;;;;;;;22.17;10.93;;;7.10;96.50;;;;;;12893253;23;20208;-81
2022/03/07 20:27:23;;;;;;;22.33;9.83;;;8.30;99.90;;;;;;12892843;23;20170;-81
2022/03/07 20:32:27;;;;;;;22.50;9.63;;;8.40;96.80;;;;;;12892973;23;20172;-81
2022/03/07 20:37:29;;;;;;;19.10;8.47;;;8.60;97.00;;;;;;12919069;23;20225;-80
2022/03/07 20:42:32;;;;;;;17.87;9.20;;;8.40;94.10;;;;;;12919208;23;20186;-84
2022/03/07 20:47:34;;;;;;;20.10;9.70;;;8.30;96.10;;;;;;12890596;23;20524;-83
2022/03/07 20:52:37;;;;;;;17.70;8.43;;;8.70;95.80;;;;;;12892561;23;20168;-83
2022/03/07 20:57:46;;;;;;;12.57;8.07;;;9.40;93.60;;;;;;12890105;22;20203;-83
2022/03/07 21:02:48;;;;;;;18.60;8.97;;;9.50;91.80;;;;;;12892732;23;20194;-80
2022/03/07 21:07:51;;;;;;;16.60;9.00;;;9.60;90.60;;;;;;12893255;23;20245;-81
2022/03/07 21:12:53;;;;;;;14.50;8.30;;;9.70;90.80;;;;;;12891885;23;20223;-81
2022/03/07 21:17:56;;;;;;;16.17;9.00;;;9.50;90.20;;;;;;12918955;23;20221;-81
2022/03/07 21:22:59;;;;;;;15.77;8.80;;;9.60;89.10;;;;;;12892725;23;20179;-80
2022/03/07 21:28:01;;;;;;;11.43;7.50;;;9.50;89.60;;;;;;12892079;23;20201;-81
2022/03/07 21:33:04;;;;;;;16.10;7.97;;;9.60;88.50;;;;;;12891202;23;20213;-80
2022/03/07 21:38:12;;;;;;;15.23;7.07;;;9.30;88.50;;;;;;12892267;23;20519;-80
2022/03/07 21:43:14;;;;;;;13.30;7.90;;;8.30;90.00;;;;;;12919357;23;20292;-80
2022/03/07 21:48:17;;;;;;;13.43;8.07;;;8.20;91.90;;;;;;12916019;23;20544;-80
2022/03/07 21:53:20;;;;;;;13.60;6.80;;;7.00;92.70;;;;;;12890377;23;20556;-80
2022/03/07 21:58:22;;;;;;;13.47;7.13;;;8.40;95.40;;;;;;12892000;23;20175;-80
2022/03/07 22:03:30;;;;;;;13.00;6.87;;;9.20;92.00;;;;;;12934890;23;20217;-80
2022/03/07 22:08:33;;;;;;;11.40;7.20;;;9.50;90.30;;;;;;12890818;23;20238;-80
2022/03/07 22:13:36;;;;;;;10.30;6.97;;;9.80;89.50;;;;;;12891400;23;20234;-80
2022/03/07 22:18:38;;;;;;;17.60;6.97;;;9.90;87.90;;;;;;12916556;23;20169;-80
2022/03/07 22:23:41;;;;;;;12.97;6.30;;;10.00;86.80;;;;;;12865344;23;20671;-80
2022/03/07 22:28:44;;;;;;;10.00;6.43;;;10.20;85.20;;;;;;12916205;23;20359;-80
2022/03/07 22:33:46;;;;;;;12.70;6.97;;;10.30;84.30;;;;;;12890976;23;20170;-80
2022/03/07 22:38:49;;;;;;;11.23;6.43;;;10.10;83.60;;;;;;12864453;23;20234;-81
2022/03/07 22:43:52;;;;;;;13.40;6.57;;;10.20;83.70;;;;;;12916963;23;20249;-81
2022/03/07 22:48:54;;;;;;;12.27;6.70;;;10.60;82.30;;;;;;12906476;23;20218;-81
2022/03/07 22:53:57;;;;;;;11.10;6.30;;;10.70;81.10;;;;;;12888609;23;20226;-80
2022/03/07 22:58:59;;;;;;;10.73;5.90;;;10.60;80.80;;;;;;12916168;23;20220;-80
2022/03/07 23:04:03;;;;;;;11.83;6.53;;;10.60;80.70;;;;;;12890512;23;20198;-80
2022/03/07 23:09:06;;;;;;;9.93;5.90;;;10.70;79.80;;;;;;12890410;23;20254;-80
2022/03/07 23:14:08;;;;;;;12.20;5.67;;;10.70;79.50;;;;;;12917967;23;20178;-80
2022/03/07 23:19:11;;;;;;;11.97;6.07;;;10.70;79.20;;;;;;12891900;23;20173;-80
2022/03/07 23:24:13;;;;;;;38.73;18.93;;;10.60;79.20;;;;;;12891720;23;20198;-77
2022/03/07 23:29:16;;;;;;;14.90;6.90;;;0.50;97.90;;;;;;12917160;23;20197;-83
2022/03/07 23:34:20;;;;;;;14.23;6.30;;;5.50;99.90;;;;;;12934484;23;20174;-83
2022/03/07 23:39:23;;;;;;;13.67;7.40;;;8.30;99.90;;;;;;12916823;23;20170;-80
2022/03/07 23:44:25;;;;;;;14.53;7.77;;;9.60;96.50;;;;;;12916223;23;20186;-81
2022/03/07 23:49:28;;;;;;;12.83;6.57;;;10.00;93.20;;;;;;12890832;23;20163;-80
2022/03/07 23:54:31;;;;;;;13.40;5.77;;;10.40;91.10;;;;;;12917174;23;20198;-80
2022/03/07 23:59:34;;;;;;;13.07;7.00;;;10.60;89.30;;;;;;12889147;23;20182;-80
